Time,TemperatureF,DewpointF,PressureIn,WindDirection,WindDirectionDegrees,WindSpeedMPH,WindSpeedGustMPH,Humidity,HourlyPrecipIn,Conditions,Clouds,dailyrainin,SolarRadiationWatts/m^2,SoftwareType,DateUTC
2014-01-18 00:02:00,21.0,19.0,-100.00,North,-999,0.0,2.0,91,0.00,,,0.05,0.000000,,2014-01-18 05:02:00,
2014-01-18 00:43:00,21.0,19.0,-100.00,North,-999,0.0,2.0,91,0.00,,,0.05,0.000000,,2014-01-18 05:43:00,
2014-01-18 00:53:00,21.0,19.0,-100.00,North,-999,0.0,2.0,91,0.00,,,0.05,0.000000,,2014-01-18 05:53:00,
2014-01-18 01:02:00,20.0,18.0,-100.00,North,-999,0.0,2.0,92,0.00,,,0.05,0.000000,,2014-01-18 06:02:00,
2014-01-18 01:42:00,20.0,18.0,-100.00,North,-999,0.0,2.0,92,0.00,,,0.05,0.000000,,2014-01-18 06:42:00,
2014-01-18 01:52:00,20.0,18.0,-100.00,North,-999,0.0,2.0,92,0.00,,,0.05,0.000000,,2014-01-18 06:52:00,
2014-01-18 02:02:00,18.0,16.0,-100.00,West,259,1.0,2.0,92,0.00,,,0.05,0.000000,,2014-01-18 07:02:00,
2014-01-18 02:42:00,18.0,16.0,-100.00,West,259,1.0,2.0,92,0.00,,,0.05,0.000000,,2014-01-18 07:42:00,
2014-01-18 02:53:00,18.0,16.0,-100.00,West,259,1.0,2.0,92,0.00,,,0.05,0.000000,,2014-01-18 07:53:00,
2014-01-18 03:02:00,17.0,15.0,-100.00,North,-999,0.0,2.0,90,0.00,,,0.05,0.000000,,2014-01-18 08:02:00,
2014-01-18 03:42:00,17.0,15.0,-100.00,North,-999,0.0,2.0,90,0.00,,,0.05,0.000000,,2014-01-18 08:42:00,
2014-01-18 03:52:00,17.0,15.0,-100.00,North,-999,0.0,2.0,90,0.00,,,0.05,0.000000,,2014-01-18 08:52:00,
2014-01-18 04:02:00,17.0,15.0,-100.00,North,-999,0.0,2.0,92,0.00,,,0.05,0.000000,,2014-01-18 09:02:00,
2014-01-18 04:43:00,17.0,15.0,-100.00,North,-999,0.0,2.0,92,0.00,,,0.05,0.000000,,2014-01-18 09:43:00,
2014-01-18 04:53:00,17.0,15.0,-100.00,North,-999,0.0,2.0,92,0.00,,,0.05,0.000000,,2014-01-18 09:53:00,
2014-01-18 05:02:00,20.0,19.0,-100.00,North,-999,0.0,2.0,94,0.00,,,0.05,0.000000,,2014-01-18 10:02:00,
2014-01-18 05:42:00,20.0,19.0,-100.00,North,-999,0.0,2.0,94,0.00,,,0.05,0.000000,,2014-01-18 10:42:00,
2014-01-18 05:53:00,20.0,19.0,-100.00,North,-999,0.0,2.0,94,0.00,,,0.05,0.000000,,2014-01-18 10:53:00,
2014-01-18 06:02:00,21.0,19.0,-100.00,North,-999,0.0,2.0,93,0.00,,,0.05,0.000000,,2014-01-18 11:02:00,
2014-01-18 06:42:00,21.0,19.0,-100.00,North,-999,0.0,2.0,93,0.00,,,0.05,0.000000,,2014-01-18 11:42:00,
2014-01-18 06:53:00,21.0,19.0,-100.00,North,-999,0.0,2.0,93,0.00,,,0.05,0.000000,,2014-01-18 11:53:00,
2014-01-18 07:02:00,22.0,20.0,-100.00,NNW,347,1.0,3.0,92,0.00,,,0.05,0.000000,,2014-01-18 12:02:00,
2014-01-18 07:42:00,22.0,20.0,-100.00,NNW,347,1.0,3.0,92,0.00,,,0.05,0.000000,,2014-01-18 12:42:00,
2014-01-18 07:52:00,22.0,20.0,-100.00,NNW,347,1.0,3.0,92,0.00,,,0.05,0.000000,,2014-01-18 12:52:00,
2014-01-18 08:02:00,22.0,19.0,-100.00,North,9,2.0,4.0,89,0.00,,,0.05,12.000000,,2014-01-18 13:02:00,
2014-01-18 08:42:00,22.0,19.0,-100.00,North,9,2.0,4.0,89,0.00,,,0.05,12.000000,,2014-01-18 13:42:00,
2014-01-18 08:52:00,22.0,19.0,-100.00,North,9,2.0,4.0,89,0.00,,,0.05,12.000000,,2014-01-18 13:52:00,
2014-01-18 09:02:00,25.0,21.0,-100.00,North,3,2.0,3.0,86,0.00,,,0.05,43.000000,,2014-01-18 14:02:00,
2014-01-18 09:42:00,25.0,21.0,-100.00,North,3,2.0,3.0,86,0.00,,,0.05,43.000000,,2014-01-18 14:42:00,
2014-01-18 09:52:00,25.0,21.0,-100.00,North,3,2.0,3.0,86,0.00,,,0.05,43.000000,,2014-01-18 14:52:00,
2014-01-18 10:02:00,28.0,24.0,-100.00,ENE,74,3.0,6.0,86,0.00,,,0.05,102.000000,,2014-01-18 15:02:00,
2014-01-18 10:44:00,28.0,24.0,-100.00,ENE,74,3.0,6.0,86,0.00,,,0.05,102.000000,,2014-01-18 15:44:00,
2014-01-18 10:53:00,28.0,24.0,-100.00,ENE,74,3.0,6.0,86,0.00,,,0.05,102.000000,,2014-01-18 15:53:00,
2014-01-18 11:02:00,30.0,27.0,-100.00,East,80,3.0,8.0,88,0.00,,,0.02,131.000000,,2014-01-18 16:02:00,
2014-01-18 11:43:00,30.0,27.0,-100.00,East,80,3.0,8.0,88,0.00,,,0.02,131.000000,,2014-01-18 16:43:00,
2014-01-18 11:52:00,30.0,27.0,-100.00,East,80,3.0,8.0,88,0.00,,,0.02,131.000000,,2014-01-18 16:52:00,
2014-01-18 12:02:00,30.0,26.0,-100.00,NE,37,3.0,7.0,85,0.00,,,0.01,174.000000,,2014-01-18 17:02:00,
2014-01-18 12:42:00,30.0,26.0,-100.00,NE,37,3.0,7.0,85,0.00,,,0.01,174.000000,,2014-01-18 17:42:00,
2014-01-18 12:52:00,30.0,26.0,-100.00,NE,37,3.0,7.0,85,0.00,,,0.01,174.000000,,2014-01-18 17:52:00,
2014-01-18 13:02:00,32.0,27.0,-100.00,NE,49,2.0,6.0,80,0.01,,,0.01,194.000000,,2014-01-18 18:02:00,
2014-01-18 13:43:00,32.0,27.0,-100.00,NE,49,2.0,6.0,80,0.01,,,0.01,194.000000,,2014-01-18 18:43:00,
2014-01-18 13:52:00,32.0,27.0,-100.00,NE,49,2.0,6.0,80,0.01,,,0.01,194.000000,,2014-01-18 18:52:00,
2014-01-18 14:02:00,32.0,27.0,-100.00,ENE,60,2.0,6.0,81,0.00,,,0.01,165.000000,,2014-01-18 19:02:00,
2014-01-18 14:42:00,32.0,27.0,-100.00,ENE,60,2.0,6.0,81,0.00,,,0.01,165.000000,,2014-01-18 19:42:00,
2014-01-18 14:52:00,32.0,27.0,-100.00,ENE,60,2.0,6.0,81,0.00,,,0.01,165.000000,,2014-01-18 19:52:00,
2014-01-18 15:02:00,30.0,26.0,-100.00,North,10,2.0,5.0,86,0.00,,,0.01,36.000000,,2014-01-18 20:02:00,
2014-01-18 15:42:00,30.0,26.0,-100.00,North,10,2.0,5.0,86,0.00,,,0.01,36.000000,,2014-01-18 20:42:00,
2014-01-18 15:52:00,30.0,26.0,-100.00,North,10,2.0,5.0,86,0.00,,,0.01,36.000000,,2014-01-18 20:52:00,
2014-01-18 16:02:00,27.0,24.0,-100.00,West,276,2.0,7.0,90,0.00,,,0.01,14.000000,,2014-01-18 21:02:00,
2014-01-18 16:43:00,27.0,24.0,-100.00,West,276,2.0,7.0,90,0.00,,,0.01,14.000000,,2014-01-18 21:43:00,
2014-01-18 16:53:00,27.0,24.0,-100.00,West,276,2.0,7.0,90,0.00,,,0.01,14.000000,,2014-01-18 21:53:00,
2014-01-18 17:02:00,25.0,23.0,-100.00,West,277,2.0,7.0,92,0.00,,,0.01,2.000000,,2014-01-18 22:02:00,
2014-01-18 17:43:00,25.0,23.0,-100.00,West,277,2.0,7.0,92,0.00,,,0.01,2.000000,,2014-01-18 22:43:00,
2014-01-18 17:53:00,25.0,23.0,-100.00,West,277,2.0,7.0,92,0.00,,,0.01,2.000000,,2014-01-18 22:53:00,
2014-01-18 18:02:00,24.0,22.0,-100.00,West,261,2.0,8.0,92,0.00,,,0.01,0.000000,,2014-01-18 23:02:00,
2014-01-18 18:42:00,24.0,22.0,-100.00,West,261,2.0,8.0,92,0.00,,,0.01,0.000000,,2014-01-18 23:42:00,
2014-01-18 18:53:00,24.0,22.0,-100.00,West,261,2.0,8.0,92,0.00,,,0.01,0.000000,,2014-01-18 23:53:00,
2014-01-18 19:02:00,21.0,19.0,-100.00,WNW,298,5.0,12.0,92,0.00,,,0.01,0.000000,,2014-01-19 00:02:00,
2014-01-18 19:22:00,21.0,19.0,-100.00,WNW,298,5.0,12.0,92,0.00,,,0.01,0.000000,,2014-01-19 00:22:00,
2014-01-18 19:32:00,21.0,19.0,-100.00,WNW,298,5.0,12.0,92,0.00,,,0.01,0.000000,,2014-01-19 00:32:00,
2014-01-18 19:42:00,21.0,19.0,-100.00,WNW,298,5.0,12.0,92,0.00,,,0.01,0.000000,,2014-01-19 00:42:00,
2014-01-18 19:52:00,21.0,19.0,-100.00,WNW,298,5.0,12.0,92,0.00,,,0.01,0.000000,,2014-01-19 00:52:00,
2014-01-18 20:02:00,20.0,18.0,-100.00,WNW,291,3.0,11.0,93,0.00,,,0.01,0.000000,,2014-01-19 01:02:00,
2014-01-18 20:42:00,20.0,18.0,-100.00,WNW,291,3.0,11.0,93,0.00,,,0.01,0.000000,,2014-01-19 01:42:00,
2014-01-18 20:52:00,20.0,18.0,-100.00,WNW,291,3.0,11.0,93,0.00,,,0.01,0.000000,,2014-01-19 01:52:00,
2014-01-18 21:02:00,19.0,17.0,-100.00,NNW,332,3.0,9.0,92,0.00,,,0.01,0.000000,,2014-01-19 02:02:00,
2014-01-18 21:42:00,19.0,17.0,-100.00,NNW,332,3.0,9.0,92,0.00,,,0.01,0.000000,,2014-01-19 02:42:00,
2014-01-18 21:52:00,19.0,17.0,-100.00,NNW,332,3.0,9.0,92,0.00,,,0.01,0.000000,,2014-01-19 02:52:00,
2014-01-18 22:02:00,-999.0,-99.9,-100.00,West,259,4.0,13.0,-999,0.00,,,0.01,0.000000,,2014-01-19 03:02:00,
2014-01-18 22:43:00,18.0,16.0,-100.00,West,259,4.0,13.0,92,0.00,,,0.01,0.000000,,2014-01-19 03:43:00,
2014-01-18 22:53:00,18.0,16.0,-100.00,West,259,4.0,13.0,92,0.00,,,0.01,0.000000,,2014-01-19 03:53:00,
2014-01-18 23:02:00,18.0,16.0,-100.00,NE,34,3.0,11.0,92,0.00,,,0.01,0.000000,,2014-01-19 04:02:00,
2014-01-18 23:43:00,18.0,16.0,-100.00,NE,34,3.0,11.0,92,0.00,,,0.01,0.000000,,2014-01-19 04:43:00,
2014-01-18 23:52:00,18.0,16.0,-100.00,NE,34,3.0,11.0,92,0.00,,,0.01,0.000000,,2014-01-19 04:52:00,